Birdsville, Australia
Current Conditions -  °F | °C
As of 8:00 AM on Tuesday 25 Nov 2014 (Local Time) from YOLD Reporting Station
Clear Clear  
Wind Chill: 63°   Ceiling: Unl
Heat Index: 63°   Visibility: 6mi
Dew Point: 41°   Wind: 20mph
Humidity: 45%   Direction: 150°SSE
Pressure: 30.15"   Gusts: NA
Location:  25.9°S, 139.35°E
Report Text: YOLD 242200Z AUTO 15017KT 9999 // NCD 17/05 Q1021
Loading
Personal Weather Stations






























Interactive Weather Map New forecast layout! Learn more

10-Day Weather Forecast

Advertisements
Track Severe Weather on mobile